Time;durP1;ratioP1;P1;durP2;ratioP2;P2;SDS_P1;SDS_P2;PMS_P1;PMS_P2;Temp;Humidity;BMP_temperature;BMP_pressure;BME280_temperature;BME280_humidity;BME280_pressure;Samples;Min_cycle;Max_cycle;Signal;HPM_P1;HPM_P2
2023/10/28 00:01:12;;;;;;;;;;;;;;;6.80;100.00;99054.84;4975732;28;19929;-83
2023/10/28 00:03:45;;;;;;;;;;;;;;;6.76;100.00;99050.34;4989787;28;20640;-83
2023/10/28 00:06:13;;;;;;;;;;;;;;;6.72;100.00;99060.91;4997782;28;19929;-83
2023/10/28 00:08:46;;;;;;;;;;;;;;;6.74;100.00;99056.03;4994859;28;19921;-82
2023/10/28 00:11:15;;;;;;;;;;;;;;;6.72;100.00;99057.41;4995281;28;19922;-84
2023/10/28 00:13:51;;;;;;;;;;;;;;;6.75;100.00;99059.53;4956838;28;1074627;-84
2023/10/28 00:16:23;;;;;;;;;;;;;;;6.76;100.00;99067.34;4991767;28;19929;-84
2023/10/28 00:18:51;;;;;;;;;;;;;;;6.80;100.00;99062.97;4994181;28;20276;-83
2023/10/28 00:21:21;;;;;;;;;;;;;;;6.76;100.00;99058.44;4994735;28;19921;-83
2023/10/28 00:23:56;;;;;;;;;;;;;;;6.69;100.00;99058.81;4986108;28;19922;-84
2023/10/28 00:26:29;;;;;;;;;;;;;;;6.73;100.00;99064.44;5000791;28;19928;-85
2023/10/28 00:29:04;;;;;;;;;;;;;;;6.74;100.00;99061.44;4994711;28;20389;-84
2023/10/28 00:31:32;;;;;;;;;;;;;;;6.76;100.00;99053.81;4995922;28;19925;-84
2023/10/28 00:34:05;;;;;;;;;;;;;;;6.72;100.00;99058.22;4986838;28;19928;-84
2023/10/28 00:36:33;;;;;;;;;;;;;;;6.72;100.00;99050.09;4989254;28;19922;-82
2023/10/28 00:39:06;;;;;;;;;;;;;;;6.70;100.00;99056.91;4988446;28;19922;-83
2023/10/28 00:41:35;;;;;;;;;;;;;;;6.75;100.00;99051.41;4984871;28;19922;-84
2023/10/28 00:44:09;;;;;;;;;;;;;;;6.73;100.00;99051.72;4995028;28;20393;-83
2023/10/28 00:46:37;;;;;;;;;;;;;;;6.73;100.00;99057.13;4994755;28;19922;-84
2023/10/28 00:49:06;;;;;;;;;;;;;;;6.70;100.00;99056.91;4999890;28;19928;-83
2023/10/28 00:51:39;;;;;;;;;;;;;;;6.71;100.00;99055.81;4991676;28;19930;-83
2023/10/28 00:54:08;;;;;;;;;;;;;;;6.73;100.00;99061.75;4977345;28;19928;-85
2023/10/28 00:56:41;;;;;;;;;;;;;;;6.71;100.00;99061.22;4993549;28;19929;-83
2023/10/28 00:59:15;;;;;;;;;;;;;;;6.74;100.00;99064.16;4994689;28;20263;-84
2023/10/28 01:01:43;;;;;;;;;;;;;;;6.74;100.00;99066.84;4997744;28;19922;-83
2023/10/28 01:04:11;;;;;;;;;;;;;;;6.76;100.00;99066.56;4995148;28;19921;-84
2023/10/28 01:06:40;;;;;;;;;;;;;;;6.78;100.00;99062.47;4974848;28;19929;-84
2023/10/28 01:09:08;;;;;;;;;;;;;;;6.76;100.00;99058.44;4990239;28;20393;-84
2023/10/28 01:11:37;;;;;;;;;;;;;;;6.67;100.00;99063.72;4993892;28;20421;-83
2023/10/28 01:14:05;;;;;;;;;;;;;;;6.62;100.00;99067.28;4993574;28;20309;-84
2023/10/28 01:16:35;;;;;;;;;;;;;;;6.63;100.00;99073.50;4983845;28;20405;-83
2023/10/28 01:19:09;;;;;;;;;;;;;;;6.63;100.00;99071.59;4993646;28;19928;-82
2023/10/28 01:21:40;;;;;;;;;;;;;;;6.60;100.00;99074.91;4995328;28;20377;-83
2023/10/28 01:24:13;;;;;;;;;;;;;;;6.58;100.00;99076.28;4990824;28;19933;-84
2023/10/28 01:26:46;;;;;;;;;;;;;;;6.64;100.00;99073.22;4989324;28;19929;-84
2023/10/28 01:29:13;;;;;;;;;;;;;;;6.56;100.00;99073.88;4993557;28;19922;-83
2023/10/28 01:31:47;;;;;;;;;;;;;;;6.60;100.00;99072.19;4997215;28;20298;-82
2023/10/28 01:34:21;;;;;;;;;;;;;;;6.61;100.00;99076.47;4996019;28;19928;-83
2023/10/28 01:36:57;;;;;;;;;;;;;;;6.59;100.00;99080.59;4993482;28;19929;-81
2023/10/28 01:39:25;;;;;;;;;;;;;;;6.64;100.00;99077.81;4993377;28;19921;-83
2023/10/28 01:41:58;;;;;;;;;;;;;;;6.62;100.00;99080.00;4963484;28;19921;-83
2023/10/28 01:44:26;;;;;;;;;;;;;;;6.63;100.00;99073.50;4993557;28;19925;-83
2023/10/28 01:46:55;;;;;;;;;;;;;;;6.61;100.00;99079.19;4994118;28;19926;-84
2023/10/28 01:49:23;;;;;;;;;;;;;;;6.62;100.00;99080.81;4994234;28;19934;-84
2023/10/28 01:51:51;;;;;;;;;;;;;;;6.66;100.00;99083.72;4986559;28;19932;-83
2023/10/28 01:54:20;;;;;;;;;;;;;;;6.66;100.00;99085.63;4972723;28;19925;-83
2023/10/28 01:56:54;;;;;;;;;;;;;;;6.59;100.00;99084.09;4993038;28;19930;-83
2023/10/28 01:59:27;;;;;;;;;;;;;;;6.62;100.00;99088.91;4991679;28;20514;-83
2023/10/28 02:01:55;;;;;;;;;;;;;;;6.64;100.00;99085.91;4992883;28;19925;-83
2023/10/28 02:04:23;;;;;;;;;;;;;;;6.64;100.00;99088.63;4984947;28;19926;-83
2023/10/28 02:06:51;;;;;;;;;;;;;;;6.56;100.00;99089.28;4992350;28;19930;-82
2023/10/28 02:09:27;;;;;;;;;;;;;;;6.71;100.00;99088.25;4993991;28;19922;-83
2023/10/28 02:11:55;;;;;;;;;;;;;;;6.64;100.00;99091.31;4988089;28;20382;-84
2023/10/28 02:14:24;;;;;;;;;;;;;;;6.64;100.00;99089.44;4992394;28;19926;-85
2023/10/28 02:16:53;;;;;;;;;;;;;;;6.62;100.00;99093.53;4991734;28;19925;-83
2023/10/28 02:19:26;;;;;;;;;;;;;;;6.64;100.00;99086.72;4991959;28;20302;-83
2023/10/28 02:21:55;;;;;;;;;;;;;;;6.62;100.00;99085.41;4992509;28;19928;-83
2023/10/28 02:24:23;;;;;;;;;;;;;;;6.60;100.00;99085.72;4993676;28;19953;-82
2023/10/28 02:26:57;;;;;;;;;;;;;;;6.67;100.00;99087.22;4988716;28;19921;-84
2023/10/28 02:29:25;;;;;;;;;;;;;;;6.66;100.00;99091.84;4992208;28;19921;-83
2023/10/28 02:31:53;;;;;;;;;;;;;;;6.67;100.00;99081.81;4991980;28;19930;-83
2023/10/28 02:34:26;;;;;;;;;;;;;;;6.67;100.00;99088.06;4992571;28;19937;-83
2023/10/28 02:36:54;;;;;;;;;;;;;;;6.70;100.00;99094.75;4991430;28;20406;-84
2023/10/28 02:39:27;;;;;;;;;;;;;;;6.66;100.00;99094.53;4963289;28;19929;-82
2023/10/28 02:41:55;;;;;;;;;;;;;;;6.64;100.00;99099.44;4988372;28;20586;-82
2023/10/28 02:44:24;;;;;;;;;;;;;;;6.64;100.00;99096.72;4993143;28;19930;-83
2023/10/28 02:46:58;;;;;;;;;;;;;;;6.68;100.00;99096.94;4983373;28;19922;-83
2023/10/28 02:49:27;;;;;;;;;;;;;;;6.64;100.00;99086.72;4992401;28;19921;-83
2023/10/28 02:52:00;;;;;;;;;;;;;;;6.64;100.00;99088.63;4992245;28;19922;-83
2023/10/28 02:54:33;;;;;;;;;;;;;;;6.59;100.00;99089.50;4987200;28;19940;-83
2023/10/28 02:57:01;;;;;;;;;;;;;;;6.63;100.00;99090.53;4963121;28;20401;-83
2023/10/28 02:59:36;;;;;;;;;;;;;;;6.71;100.00;99086.38;4987001;28;19929;-83
2023/10/28 03:02:08;;;;;;;;;;;;;;;6.69;100.00;99088.53;4976975;28;19929;-83
2023/10/28 03:04:36;;;;;;;;;;;;;;;6.71;100.00;99083.66;4978204;28;19928;-83
2023/10/28 03:07:04;;;;;;;;;;;;;;;6.67;100.00;99096.16;4994675;28;19940;-83
2023/10/28 03:09:38;;;;;;;;;;;;;;;6.66;100.00;99094.53;4974277;28;19929;-82
2023/10/28 03:12:07;;;;;;;;;;;;;;;6.67;100.00;99095.34;4992806;28;19929;-83
2023/10/28 03:14:41;;;;;;;;;;;;;;;6.68;100.00;99097.75;4991528;28;19922;-84
2023/10/28 03:17:14;;;;;;;;;;;;;;;6.73;100.00;99102.28;4990851;28;19929;-84
2023/10/28 03:19:42;;;;;;;;;;;;;;;6.69;100.00;99101.28;4992005;28;20559;-83
2023/10/28 03:22:10;;;;;;;;;;;;;;;6.67;100.00;99101.56;4988978;28;19937;-83
2023/10/28 03:24:38;;;;;;;;;;;;;;;6.68;100.00;99108.56;4988562;28;19921;-84
2023/10/28 03:27:06;;;;;;;;;;;;;;;6.62;100.00;99109.75;4998759;28;19929;-83
2023/10/28 03:29:40;;;;;;;;;;;;;;;6.68;100.00;99110.47;4991804;28;19929;-82
2023/10/28 03:32:09;;;;;;;;;;;;;;;6.69;100.00;99109.38;4992025;28;19930;-83
2023/10/28 03:34:42;;;;;;;;;;;;;;;6.64;100.00;99100.25;4987625;28;19929;-84
2023/10/28 03:37:16;;;;;;;;;;;;;;;6.62;100.00;99112.44;4990557;28;19925;-83
2023/10/28 03:39:44;;;;;;;;;;;;;;;6.61;100.00;99116.22;4988829;28;19929;-83
2023/10/28 03:42:12;;;;;;;;;;;;;;;6.59;100.00;99111.13;4992942;28;19921;-82
2023/10/28 03:44:41;;;;;;;;;;;;;;;6.52;100.00;99110.69;4990908;28;20503;-83
2023/10/28 03:47:15;;;;;;;;;;;;;;;6.57;100.00;99116.03;4986316;28;19933;-82
2023/10/28 03:49:48;;;;;;;;;;;;;;;6.60;100.00;99114.63;4971489;28;19928;-83
2023/10/28 03:52:21;;;;;;;;;;;;;;;6.60;100.00;99104.63;4963190;28;20382;-83
2023/10/28 03:54:48;;;;;;;;;;;;;;;6.60;100.00;99112.75;4991034;28;19929;-83
2023/10/28 03:57:21;;;;;;;;;;;;;;;6.61;100.00;99114.31;4991407;28;19922;-83
2023/10/28 03:59:49;;;;;;;;;;;;;;;6.59;100.00;99118.44;4992866;28;19922;-83
2023/10/28 04:02:19;;;;;;;;;;;;;;;6.55;100.00;99114.72;4982828;28;20314;-83
2023/10/28 04:04:52;;;;;;;;;;;;;;;6.55;100.00;99109.31;4991168;28;19922;-82
2023/10/28 04:07:19;;;;;;;;;;;;;;;6.64;100.00;99115.66;4976547;28;20276;-83
2023/10/28 04:09:47;;;;;;;;;;;;;;;6.66;100.00;99118.06;4991219;28;19933;-84
2023/10/28 04:12:20;;;;;;;;;;;;;;;6.63;100.00;99120.25;4980984;28;20372;-83
2023/10/28 04:14:53;;;;;;;;;;;;;;;6.60;100.00;99120.03;4990081;28;19922;-83
2023/10/28 04:17:31;;;;;;;;;;;;;;;6.60;100.00;99123.56;4978567;28;19921;-83
2023/10/28 04:19:59;;;;;;;;;;;;;;;6.57;100.00;99126.84;4989534;28;19922;-83
2023/10/28 04:22:28;;;;;;;;;;;;;;;6.58;100.00;99124.94;4993317;28;19922;-82
2023/10/28 04:25:01;;;;;;;;;;;;;;;6.57;100.00;99123.31;4967430;28;19922;-82
2023/10/28 04:27:29;;;;;;;;;;;;;;;6.61;100.00;99110.81;4994772;28;19922;-83
2023/10/28 04:29:57;;;;;;;;;;;;;;;6.55;100.00;99118.22;4993260;28;19922;-83
2023/10/28 04:32:27;;;;;;;;;;;;;;;6.50;100.00;99118.28;4998274;28;19929;-82
2023/10/28 04:35:01;;;;;;;;;;;;;;;6.52;100.00;99108.00;4990856;28;19929;-83
2023/10/28 04:37:35;;;;;;;;;;;;;;;6.58;100.00;99114.91;4976221;28;19921;-82
2023/10/28 04:40:03;;;;;;;;;;;;;;;6.48;100.00;99125.88;4995782;28;20548;-83
2023/10/28 04:42:36;;;;;;;;;;;;;;;6.54;100.00;99116.59;4987232;28;19922;-84
2023/10/28 04:45:06;;;;;;;;;;;;;;;6.55;100.00;99123.63;5000080;28;20073;-83
2023/10/28 04:47:39;;;;;;;;;;;;;;;6.53;100.00;99120.41;4978765;28;19922;-80
2023/10/28 04:50:13;;;;;;;;;;;;;;;6.45;100.00;99116.44;4995438;28;20287;-81
2023/10/28 04:52:41;;;;;;;;;;;;;;;6.53;100.00;99114.19;4976091;28;19925;-83
2023/10/28 04:55:12;;;;;;;;;;;;;;;6.56;100.00;99119.00;4993204;28;19926;-85
2023/10/28 04:57:41;;;;;;;;;;;;;;;6.54;100.00;99115.81;4992827;28;19941;-86
2023/10/28 05:00:16;;;;;;;;;;;;;;;6.50;100.00;99123.69;4993110;28;19922;-83
2023/10/28 05:02:44;;;;;;;;;;;;;;;6.53;100.00;99128.53;4972159;28;19926;-82
2023/10/28 05:05:14;;;;;;;;;;;;;;;6.57;100.00;99118.72;4993907;28;19922;-84
2023/10/28 05:07:42;;;;;;;;;;;;;;;6.57;100.00;99128.72;4990924;28;19922;-86
2023/10/28 05:10:15;;;;;;;;;;;;;;;6.54;100.00;99124.69;4988204;28;19929;-85
2023/10/28 05:12:43;;;;;;;;;;;;;;;6.44;100.00;99131.03;4990620;28;19933;-85
2023/10/28 05:15:16;;;;;;;;;;;;;;;6.50;100.00;99122.88;4990768;28;19929;-87
2023/10/28 05:17:44;;;;;;;;;;;;;;;6.47;100.00;99126.97;4993986;28;19922;-85
2023/10/28 05:20:12;;;;;;;;;;;;;;;6.50;100.00;99131.00;4991916;28;20375;-86
2023/10/28 05:22:42;;;;;;;;;;;;;;;6.50;100.00;99129.09;4993531;28;19929;-85
2023/10/28 05:25:10;;;;;;;;;;;;;;;6.49;100.00;99135.59;4977328;28;19922;-86
2023/10/28 05:27:43;;;;;;;;;;;;;;;6.49;100.00;99135.59;4992348;28;20611;-86
2023/10/28 05:30:16;;;;;;;;;;;;;;;6.54;100.00;99140.91;4989048;28;20367;-86
2023/10/28 05:32:44;;;;;;;;;;;;;;;6.53;100.00;99139.34;4994023;28;19929;-86
2023/10/28 05:35:13;;;;;;;;;;;;;;;6.51;100.00;99135.31;4996971;28;19930;-88
2023/10/28 05:37:42;;;;;;;;;;;;;;;6.50;100.00;99139.88;4991283;28;19921;-85
2023/10/28 05:40:13;;;;;;;;;;;;;;;6.48;100.00;99142.09;4989134;28;19926;-86
2023/10/28 05:42:41;;;;;;;;;;;;;;;6.50;100.00;99142.59;4992782;28;20268;-86
2023/10/28 05:45:14;;;;;;;;;;;;;;;6.54;100.00;99140.13;4974523;28;20393;-86
2023/10/28 05:47:42;;;;;;;;;;;;;;;6.48;100.00;99152.91;4993027;28;19925;-86
2023/10/28 05:50:15;;;;;;;;;;;;;;;6.46;100.00;99152.38;4993047;28;19925;-86
2023/10/28 05:52:44;;;;;;;;;;;;;;;6.50;100.00;99155.31;4997217;28;19921;-87
2023/10/28 05:55:13;;;;;;;;;;;;;;;6.45;100.00;99162.38;4988604;28;19929;-89
2023/10/28 05:57:41;;;;;;;;;;;;;;;6.51;100.00;99151.53;4992029;28;19929;-88
2023/10/28 06:00:15;;;;;;;;;;;;;;;6.51;100.00;99163.13;4991155;28;19922;-86
2023/10/28 06:02:48;;;;;;;;;;;;;;;6.51;100.00;99159.63;4992729;28;19929;-86
2023/10/28 06:05:16;;;;;;;;;;;;;;;6.54;100.00;99167.16;4988717;28;20632;-87
2023/10/28 06:07:50;;;;;;;;;;;;;;;6.54;100.00;99167.94;4990718;28;19926;-86
2023/10/28 06:10:25;;;;;;;;;;;;;;;6.54;100.00;99167.16;4991916;28;20306;-87
2023/10/28 06:12:52;;;;;;;;;;;;;;;6.52;100.00;99175.56;4973848;28;19933;-87
2023/10/28 06:15:20;;;;;;;;;;;;;;;6.45;100.00;99184.00;4970930;28;19926;-86
2023/10/28 06:17:53;;;;;;;;;;;;;;;6.50;100.00;99176.94;4991772;28;19929;-86
2023/10/28 06:20:21;;;;;;;;;;;;;;;6.46;100.00;99180.22;4995877;28;20379;-88
2023/10/28 06:22:56;;;;;;;;;;;;;;;6.47;100.00;99181.00;4992370;28;19926;-87
2023/10/28 06:25:24;;;;;;;;;;;;;;;6.52;100.00;99182.84;4990646;28;19922;-87
2023/10/28 06:27:52;;;;;;;;;;;;;;;6.47;100.00;99186.41;4994108;28;20366;-84
2023/10/28 06:30:25;;;;;;;;;;;;;;;6.49;100.00;99186.13;4991918;28;19922;-86
2023/10/28 06:32:53;;;;;;;;;;;;;;;6.51;100.00;99175.84;4974929;28;19933;-86
2023/10/28 06:35:21;;;;;;;;;;;;;;;6.45;100.00;99185.91;4987611;28;19933;-88
2023/10/28 06:37:49;;;;;;;;;;;;;;;6.43;100.00;99191.59;4991140;28;19945;-87
2023/10/28 06:40:18;;;;;;;;;;;;;;;6.50;100.00;99193.16;4992137;28;19929;-86
2023/10/28 06:42:51;;;;;;;;;;;;;;;6.55;100.00;99198.50;5000705;28;19921;-88
2023/10/28 06:45:19;;;;;;;;;;;;;;;6.50;100.00;99198.56;4993864;28;19922;-84
2023/10/28 06:47:47;;;;;;;;;;;;;;;6.54;100.00;99200.38;4988854;28;19921;-86
2023/10/28 06:50:20;;;;;;;;;;;;;;;6.52;100.00;99194.47;4993195;28;19922;-84
2023/10/28 06:52:48;;;;;;;;;;;;;;;6.56;100.00;99198.22;4991275;28;19929;-86
2023/10/28 06:55:18;;;;;;;;;;;;;;;6.57;100.00;99201.69;4981851;28;19926;-87
2023/10/28 06:57:51;;;;;;;;;;;;;;;6.57;100.00;99202.53;4992183;28;20278;-86
2023/10/28 07:00:24;;;;;;;;;;;;;;;6.60;100.00;99201.94;4993789;28;20302;-84
2023/10/28 07:02:56;;;;;;;;;;;;;;;6.57;100.00;99196.28;4991335;28;20405;-87
2023/10/28 07:05:25;;;;;;;;;;;;;;;6.58;100.00;99206.03;4990735;28;19929;-87
2023/10/28 07:07:54;;;;;;;;;;;;;;;6.57;100.00;99205.22;4993123;28;19925;-85
2023/10/28 07:10:28;;;;;;;;;;;;;;;6.63;100.00;99204.06;4989836;28;20383;-86
2023/10/28 07:12:56;;;;;;;;;;;;;;;6.65;100.00;99211.88;4991383;28;19929;-87
2023/10/28 07:15:25;;;;;;;;;;;;;;;6.62;100.00;99225.97;4990973;28;19921;-86
2023/10/28 07:17:54;;;;;;;;;;;;;;;6.63;100.00;99228.38;4994151;28;20382;-87
2023/10/28 07:20:22;;;;;;;;;;;;;;;6.70;100.00;99238.84;4994113;28;19922;-85
2023/10/28 07:22:53;;;;;;;;;;;;;;;6.69;100.00;99242.63;4990972;28;19922;-86
2023/10/28 07:25:21;;;;;;;;;;;;;;;6.71;100.00;99235.06;4993199;28;19932;-87
2023/10/28 07:27:51;;;;;;;;;;;;;;;6.68;100.00;99241.03;4976948;28;20542;-86
2023/10/28 07:30:19;;;;;;;;;;;;;;;6.69;100.00;99244.56;4987678;28;20145;-84
2023/10/28 07:32:47;;;;;;;;;;;;;;;6.74;100.00;99248.00;4991960;28;19921;-86
2023/10/28 07:35:16;;;;;;;;;;;;;;;6.77;100.00;99252.03;4974495;28;20397;-86
2023/10/28 07:37:44;;;;;;;;;;;;;;;6.79;100.00;99247.94;4989690;28;19929;-86
2023/10/28 07:40:12;;;;;;;;;;;;;;;6.79;100.00;99249.81;4995435;28;19928;-86
2023/10/28 07:42:40;;;;;;;;;;;;;;;6.76;100.00;99251.19;4998795;28;20298;-89
2023/10/28 07:45:12;;;;;;;;;;;;;;;6.77;100.00;99247.41;5000230;28;19928;-85
2023/10/28 07:47:40;;;;;;;;;;;;;;;6.75;100.00;99248.78;4997080;28;19929;-86
2023/10/28 07:50:08;;;;;;;;;;;;;;;6.83;100.00;99250.84;4971412;28;19921;-84
2023/10/28 07:52:41;;;;;;;;;;;;;;;6.83;100.00;99252.75;4975864;28;19921;-88
2023/10/28 07:55:10;;;;;;;;;;;;;;;6.84;100.00;99263.28;4994806;28;19926;-86
2023/10/28 07:57:38;;;;;;;;;;;;;;;6.84;100.00;99251.66;4997902;28;19921;-86
2023/10/28 08:00:10;;;;;;;;;;;;;;;6.75;100.00;99260.44;4994367;28;19922;-86
2023/10/28 08:02:47;;;;;;;;;;;;;;;6.85;100.00;99253.25;4995670;28;19922;-87
2023/10/28 08:05:21;;;;;;;;;;;;;;;6.87;100.00;99251.09;4973885;28;19929;-86
2023/10/28 08:07:54;;;;;;;;;;;;;;;6.85;100.00;99256.78;4998428;28;19922;-87
2023/10/28 08:10:27;;;;;;;;;;;;;;;6.88;100.00;99266.22;5000458;28;19921;-85
2023/10/28 08:12:56;;;;;;;;;;;;;;;6.83;100.00;99274.41;4994085;28;19925;-84
2023/10/28 08:15:29;;;;;;;;;;;;;;;6.83;100.00;99277.09;4995026;28;19929;-84
2023/10/28 08:17:58;;;;;;;;;;;;;;;6.86;100.00;99284.63;4993242;28;20382;-86
2023/10/28 08:20:26;;;;;;;;;;;;;;;6.89;100.00;99287.56;4995158;28;20443;-86
2023/10/28 08:22:56;;;;;;;;;;;;;;;6.92;100.00;99281.56;4993779;28;20386;-86
2023/10/28 08:25:29;;;;;;;;;;;;;;;6.94;100.00;99292.88;4987318;28;19922;-87
2023/10/28 08:28:02;;;;;;;;;;;;;;;6.90;100.00;99282.94;4992218;28;19932;-87
2023/10/28 08:30:36;;;;;;;;;;;;;;;6.92;100.00;99288.88;4992987;28;19945;-86
2023/10/28 08:33:05;;;;;;;;;;;;;;;6.87;100.00;99286.25;4992628;28;19925;-87
2023/10/28 08:35:38;;;;;;;;;;;;;;;6.93;100.00;99283.19;4992296;28;20374;-86
2023/10/28 08:38:06;;;;;;;;;;;;;;;6.94;100.00;99284.78;4994974;28;19936;-84
2023/10/28 08:40:35;;;;;;;;;;;;;;;6.96;100.00;99287.19;4995653;28;20293;-85
2023/10/28 08:43:03;;;;;;;;;;;;;;;6.97;100.00;99291.50;4998418;28;19933;-85
2023/10/28 08:45:37;;;;;;;;;;;;;;;6.96;100.00;99284.47;4991180;28;19921;-85
2023/10/28 08:48:12;;;;;;;;;;;;;;;7.01;100.00;99284.44;4991932;28;19929;-85
2023/10/28 08:50:41;;;;;;;;;;;;;;;7.04;100.00;99291.94;4988786;28;19922;-85
2023/10/28 08:53:09;;;;;;;;;;;;;;;7.04;100.00;99299.28;4990424;28;19929;-84
2023/10/28 08:55:38;;;;;;;;;;;;;;;6.98;100.00;99293.13;4991571;28;19929;-86
2023/10/28 08:58:12;;;;;;;;;;;;;;;7.03;100.00;99294.94;4976970;28;19922;-87
2023/10/28 09:00:46;;;;;;;;;;;;;;;7.05;100.00;99293.56;4986426;28;19922;-85
2023/10/28 09:03:17;;;;;;;;;;;;;;;7.03;100.00;99301.19;4993970;28;19925;-85
2023/10/28 09:05:52;;;;;;;;;;;;;;;7.05;100.00;99301.69;4998232;28;19922;-85
2023/10/28 09:08:25;;;;;;;;;;;;;;;7.05;100.00;99306.31;4994148;28;19921;-85
2023/10/28 09:10:57;;;;;;;;;;;;;;;7.03;100.00;99314.72;4996895;28;21270;-84
2023/10/28 09:13:34;;;;;;;;;;;;;;;7.07;100.00;99309.50;4985879;28;19922;-86
2023/10/28 09:16:03;;;;;;;;;;;;;;;7.07;100.00;99304.91;4983056;28;19929;-86
2023/10/28 09:18:39;;;;;;;;;;;;;;;7.13;100.00;99309.16;4993206;28;19929;-87
2023/10/28 09:21:13;;;;;;;;;;;;;;;7.19;100.00;99312.59;4994215;28;19922;-87
2023/10/28 09:23:46;;;;;;;;;;;;;;;7.19;100.00;99311.81;5000950;28;19928;-86
2023/10/28 09:26:18;;;;;;;;;;;;;;;7.25;100.00;99319.56;4991820;28;20060;-85
2023/10/28 09:28:51;;;;;;;;;;;;;;;7.24;100.00;99320.66;4993818;28;19933;-88
2023/10/28 09:31:25;;;;;;;;;;;;;;;7.26;100.00;99312.25;4988733;28;19929;-83
2023/10/28 09:33:57;;;;;;;;;;;;;;;7.21;100.00;99309.59;4994117;28;19929;-85
2023/10/28 09:36:30;;;;;;;;;;;;;;;7.26;100.00;99317.66;4993257;28;19925;-86
2023/10/28 09:38:59;;;;;;;;;;;;;;;7.21;100.00;99315.00;4993608;28;19921;-86
2023/10/28 09:41:33;;;;;;;;;;;;;;;7.24;100.00;99319.88;4997170;28;20386;-85
2023/10/28 09:44:03;;;;;;;;;;;;;;;7.26;100.00;99320.38;4994448;28;19922;-85
2023/10/28 09:46:36;;;;;;;;;;;;;;;7.27;100.00;99325.47;4997635;28;19922;-86
2023/10/28 09:49:12;;;;;;;;;;;;;;;7.31;100.00;99317.59;4983130;28;19922;-86
2023/10/28 09:51:41;;;;;;;;;;;;;;;7.28;100.00;99327.09;4989067;28;19926;-85
2023/10/28 09:54:19;;;;;;;;;;;;;;;7.35;100.00;99315.91;4976478;28;19921;-86
2023/10/28 09:56:47;;;;;;;;;;;;;;;7.36;100.00;99316.72;4991089;28;19929;-85
2023/10/28 09:59:18;;;;;;;;;;;;;;;7.36;100.00;99311.28;4992650;28;19926;-86
2023/10/28 10:01:55;;;;;;;;;;;;;;;7.41;100.00;99317.44;4990588;28;19929;-85
2023/10/28 10:04:30;;;;;;;;;;;;;;;7.38;100.00;99323.44;4993333;28;20864;-86
2023/10/28 10:06:58;;;;;;;;;;;;;;;7.43;100.00;99317.16;4999407;28;19922;-86
2023/10/28 10:09:40;;;;;;;;;;;;;;;7.47;100.00;99323.59;4996581;28;19921;-87
2023/10/28 10:12:08;;;;;;;;;;;;;;;7.51;100.00;99326.53;4987092;28;19921;-87
2023/10/28 10:14:45;;;;;;;;;;;;;;;7.51;100.00;99315.69;4990950;28;19929;-86
2023/10/28 10:17:18;;;;;;;;;;;;;;;7.50;100.00;99312.19;4992378;28;19926;-87
2023/10/28 10:19:53;;;;;;;;;;;;;;;7.54;100.00;99310.50;4994636;28;20387;-86
2023/10/28 10:22:28;;;;;;;;;;;;;;;7.58;100.00;99313.41;4995299;28;19925;-87
2023/10/28 10:24:56;;;;;;;;;;;;;;;7.60;100.00;99308.53;4988159;28;20297;-86
2023/10/28 10:27:35;;;;;;;;;;;;;;;7.57;100.00;99312.63;4994397;28;19921;-85
2023/10/28 10:30:06;;;;;;;;;;;;;;;7.56;100.00;99311.00;4991793;28;19929;-85
2023/10/28 10:32:41;;;;;;;;;;;;;;;7.56;100.00;99304.81;4989405;28;19921;-86
2023/10/28 10:35:27;;;;;;;;;;;;;;;7.55;100.00;99314.00;4994706;28;19928;-86
2023/10/28 10:38:00;;;;;;;;;;;;;;;7.58;100.00;99324.25;4990431;28;20426;-88
2023/10/28 10:40:34;;;;;;;;;;;;;;;7.55;100.00;99319.44;4986604;28;19922;-87
2023/10/28 10:43:08;;;;;;;;;;;;;;;7.56;100.00;99321.03;4997227;28;19925;-87
2023/10/28 10:45:41;;;;;;;;;;;;;;;7.58;100.00;99325.06;4973121;28;19926;-86
2023/10/28 10:48:15;;;;;;;;;;;;;;;7.60;100.00;99317.44;4993093;28;19921;-86
2023/10/28 10:50:50;;;;;;;;;;;;;;;7.63;100.00;99318.75;4993066;28;19925;-88
2023/10/28 10:53:18;;;;;;;;;;;;;;;7.63;100.00;99321.47;4996399;28;20561;-87
2023/10/28 10:55:46;;;;;;;;;;;;;;;7.63;100.00;99324.97;4992545;28;20302;-87
2023/10/28 10:58:14;;;;;;;;;;;;;;;7.63;100.00;99321.47;4989213;28;19923;-86
2023/10/28 11:00:50;;;;;;;;;;;;;;;7.65;100.00;99321.97;4991312;28;19922;-87
2023/10/28 11:03:18;;;;;;;;;;;;;;;7.70;100.00;99324.63;4991789;28;20690;-87
2023/10/28 11:05:46;;;;;;;;;;;;;;;7.70;100.00;99318.41;4996247;28;19922;-87
2023/10/28 11:08:16;;;;;;;;;;;;;;;7.72;100.00;99327.84;4996328;28;19922;-88
2023/10/28 11:10:49;;;;;;;;;;;;;;;7.72;100.00;99341.38;5001376;28;19929;-87
2023/10/28 11:13:17;;;;;;;;;;;;;;;7.73;100.00;99332.13;4996383;28;19921;-89
2023/10/28 11:15:45;;;;;;;;;;;;;;;7.71;100.00;99333.56;4992824;28;19922;-88
2023/10/28 11:18:13;;;;;;;;;;;;;;;7.71;100.00;99333.56;4995586;28;19928;-88
2023/10/28 11:20:42;;;;;;;;;;;;;;;7.72;100.00;99327.84;4977037;28;19929;-88
2023/10/28 11:23:10;;;;;;;;;;;;;;;7.66;100.00;99332.53;4998869;28;19922;-87
2023/10/28 11:25:48;;;;;;;;;;;;;;;7.75;100.00;99334.59;4953835;28;19921;-87
2023/10/28 11:28:21;;;;;;;;;;;;;;;7.72;100.00;99324.31;4990675;28;19921;-87
2023/10/28 11:30:50;;;;;;;;;;;;;;;7.76;100.00;99325.34;4977603;28;20374;-88
2023/10/28 11:33:17;;;;;;;;;;;;;;;7.80;100.00;99331.78;4977007;28;19937;-88
2023/10/28 11:35:49;;;;;;;;;;;;;;;7.79;100.00;99325.56;4972961;28;20018;-88
2023/10/28 11:38:22;;;;;;;;;;;;;;;7.88;100.00;99316.78;4978176;28;19929;-86
2023/10/28 11:41:02;;;;;;;;;;;;;;;7.93;100.00;99319.41;4962308;28;20034;-86
2023/10/28 11:43:30;;;;;;;;;;;;;;;7.93;100.00;99312.06;4976597;28;19921;-88
2023/10/28 11:45:58;;;;;;;;;;;;;;;7.93;100.00;99320.19;4982519;28;19930;-87
2023/10/28 11:48:26;;;;;;;;;;;;;;;7.95;100.00;99317.97;4974984;28;19936;-88
2023/10/28 11:50:55;;;;;;;;;;;;;;;8.00;100.00;99317.13;4970937;28;19930;-89
2023/10/28 11:53:23;;;;;;;;;;;;;;;8.00;100.00;99319.81;4971806;28;19934;-88
2023/10/28 11:55:51;;;;;;;;;;;;;;;8.04;100.00;99314.59;4970425;28;19941;-88
2023/10/28 11:58:25;;;;;;;;;;;;;;;8.08;100.00;99324.56;4973027;28;19937;-88
2023/10/28 12:00:58;;;;;;;;;;;;;;;8.13;100.00;99313.66;4973473;28;19937;-89
2023/10/28 12:03:33;;;;;;;;;;;;;;;8.19;100.00;99311.66;4959578;28;19936;-88
2023/10/28 12:06:00;;;;;;;;;;;;;;;8.21;100.00;99320.28;4978734;28;19930;-87
2023/10/28 12:08:28;;;;;;;;;;;;;;;8.27;100.00;99321.81;4975447;28;19930;-88
2023/10/28 12:10:56;;;;;;;;;;;;;;;8.32;100.00;99319.00;4970329;28;19922;-89
2023/10/28 12:13:27;;;;;;;;;;;;;;;8.38;100.00;99317.00;4971921;28;19929;-85
2023/10/28 12:15:55;;;;;;;;;;;;;;;8.41;100.00;99315.59;4960323;28;19930;-89
2023/10/28 12:18:23;;;;;;;;;;;;;;;8.37;100.00;99309.16;4952142;28;20017;-88
2023/10/28 12:20:56;;;;;;;;;;;;;;;8.38;100.00;99314.28;4974215;28;20610;-87
2023/10/28 12:23:29;;;;;;;;;;;;;;;8.37;100.00;99312.69;4974498;28;21162;-90
2023/10/28 12:25:57;;;;;;;;;;;;;;;8.34;100.00;99311.38;4975206;28;19930;-90
2023/10/28 12:28:27;;;;;;;;;;;;;;;8.38;100.00;99311.56;4958698;28;19930;-89
2023/10/28 12:31:00;;;;;;;;;;;;;;;8.37;100.00;99314.59;4961042;28;19930;-90
2023/10/28 12:33:28;;;;;;;;;;;;;;;8.32;100.00;99305.44;4965162;28;20421;-87
2023/10/28 12:35:56;;;;;;;;;;;;;;;8.39;100.00;99306.97;4974995;28;21306;-88
2023/10/28 12:38:26;;;;;;;;;;;;;;;8.39;100.00;99301.56;4961460;28;19922;-89
2023/10/28 12:40:54;;;;;;;;;;;;;;;8.37;100.00;99309.16;4976448;28;19936;-89
2023/10/28 12:43:28;;;;;;;;;;;;;;;8.39;100.00;99301.56;4976058;28;19930;-89
2023/10/28 12:45:56;;;;;;;;;;;;;;;8.45;100.00;99303.91;4977261;28;19930;-89
2023/10/28 12:48:24;;;;;;;;;;;;;;;8.42;100.00;99309.06;4954965;28;19929;-90
2023/10/28 12:50:59;;;;;;;;;;;;;;;8.42;100.00;99301.75;4975120;28;19922;-89
2023/10/28 12:53:27;;;;;;;;;;;;;;;8.44;100.00;99301.47;4953986;28;19951;-90
2023/10/28 12:55:56;;;;;;;;;;;;;;;8.43;100.00;99297.94;4959291;28;20485;-88
2023/10/28 12:58:25;;;;;;;;;;;;;;;8.47;100.00;99309.03;4969041;28;20309;-89
2023/10/28 13:00:54;;;;;;;;;;;;;;;8.46;100.00;99313.63;4970156;28;20362;-89
2023/10/28 13:03:22;;;;;;;;;;;;;;;8.53;100.00;99307.03;4977988;28;20409;-88
2023/10/28 13:05:50;;;;;;;;;;;;;;;8.55;100.00;99304.78;4987639;28;19922;-85